Historique des mesures à Cassis (13260), France
Quotidien Résumé Avril 10, 2017 Unités:  US    Métrique   Métrique/US
« Précédent (Jour)
Suivant (Jour) »
Quotidien Hebdomadaire Mensuel Annuel Période au choix
  Maximum: Minimum: Moyenne:
Température: 32 °F 55 °F 60.1 °F
Point de rosée: 32 °F 41.4 °F 48.9 °F
Humidité: Humidity % 57 % 64 %
Vitesse du vent: WindSpeedKMH mph 0.0 mph 2 mph
Rafales: WindSpeedGustKMH mph - -
Vent:- - SE
Pression: 0 in 30 in -
Précipitations: 0 in    
Historical Graphs
 
 
Mesures pour : Avril 10, 2017
Heure Temperature Point de rosée Pression Vent Vitesse du vent Rafales Humidité Pluie (par heure) Conditions
32 °F 32 °F 0 in Calm     Humidity % 0 in SoftwareType W/m2
00:11 57.9 °F 44.2 °F 30.2 in NNE 1.4 mph 1.4 mph 60 % 0 in open2300-1.11 W/m2
01:11 57.6 °F 45 °F 30.2 in Calm     63 % 0 in open2300-1.11 W/m2
02:11 56.8 °F 44.8 °F 30.2 in Calm     64 % 0 in open2300-1.11 W/m2
03:11 57 °F 44.4 °F 30.1 in NNW 2.9 mph 2.9 mph 63 % 0 in open2300-1.11 W/m2
04:11 57 °F 44.1 °F 30.1 in North 6.1 mph 6.1 mph 62 % 0 in open2300-1.11 W/m2
05:11 56.5 °F 43.2 °F 30.1 in Calm     61 % 0 in open2300-1.11 W/m2
06:11 55.9 °F 42.6 °F 30.1 in Calm     61 % 0 in open2300-1.11 W/m2
07:11 55 °F 41.4 °F 30.1 in Calm     60 % 0 in open2300-1.11 W/m2
08:11 56.1 °F 42.1 °F 30.1 in ENE 1.4 mph 1.4 mph 59 % 0 in open2300-1.11 W/m2
09:11 59.5 °F 44.8 °F 30.1 in South 1.4 mph 2.6 mph 58 % 0 in open2300-1.11 W/m2
10:11 61 °F 45.7 °F 30.1 in SE 1.1 mph 5.0 mph 57 % 0 in open2300-1.11 W/m2
11:11 64.6 °F 52.2 °F 30.1 in SE 8.7 mph 8.7 mph 64 % 0 in open2300-1.11 W/m2
12:11 67.6 °F 54.5 °F 30.1 in SSE 3.5 mph 3.5 mph 63 % 0 in open2300-1.11 W/m2
13:11 68.4 °F 55.8 °F 30.1 in SSE 4.3 mph 6.4 mph 64 % 0 in open2300-1.11 W/m2
14:11 68.5 °F 56.7 °F 30.1 in SE 4.0 mph 12.2 mph 66 % 0 in open2300-1.11 W/m2
15:11 67.8 °F 56.8 °F 30.1 in SSE 4.0 mph 4.0 mph 68 % 0 in open2300-1.11 W/m2
16:11 67.3 °F 57.2 °F 30.1 in SE 6.4 mph 11.9 mph 70 % 0 in open2300-1.11 W/m2
17:11 65.8 °F 56.5 °F 30.1 in SE 2.6 mph 5.8 mph 72 % 0 in open2300-1.11 W/m2
18:11 64.2 °F 55.4 °F 30 in Calm   4.0 mph 73 % 0 in open2300-1.11 W/m2
19:11 63.1 °F 54.7 °F 30 in SE 3.2 mph 3.2 mph 74 % 0 in open2300-1.11 W/m2
20:11 62.1 °F 54.3 °F 30 in Calm   4.0 mph 76 % 0 in open2300-1.11 W/m2
21:11 60.6 °F 53.4 °F 30 in Calm     77 % 0 in open2300-1.11 W/m2
22:11 59.4 °F 52.9 °F 30 in Calm     79 % 0 in open2300-1.11 W/m2
23:11 58.6 °F 50 °F 30 in Calm     73 % 0 in open2300-1.11 W/m2
Observations météo à CASSIS
WU-History script by Weather Underground - 1 mb